TimePST,TemperatureF,Dew PointF,Humidity,Sea Level PressureIn,VisibilityMPH,Wind Direction,Wind SpeedMPH,Gust SpeedMPH,PrecipitationIn,Events,Conditions,WindDirDegrees,DateUTC
12:53 AM,17.1,10.9,77,30.44,7.0,Calm,Calm,-,N/A,,Overcast,0,2013-01-14 08:53:00
1:53 AM,18.0,12.0,78,30.45,8.0,SW,3.5,-,N/A,,Overcast,230,2013-01-14 09:53:00
2:53 AM,18.0,12.0,78,30.45,7.0,Calm,Calm,-,N/A,,Overcast,0,2013-01-14 10:53:00
3:53 AM,19.0,12.0,74,30.43,8.0,Calm,Calm,-,N/A,,Overcast,0,2013-01-14 11:53:00
4:53 AM,19.9,12.9,74,30.39,8.0,Calm,Calm,-,N/A,,Overcast,0,2013-01-14 12:53:00
5:53 AM,19.9,12.9,74,30.39,8.0,Calm,Calm,-,N/A,,Overcast,0,2013-01-14 13:53:00
6:53 AM,19.0,12.9,77,30.39,7.0,Variable,5.8,-,N/A,,Mostly Cloudy,0,2013-01-14 14:53:00
7:53 AM,21.0,14.0,74,30.38,8.0,ESE,3.5,-,N/A,,Overcast,110,2013-01-14 15:53:00
8:53 AM,21.9,15.1,75,30.38,6.0,Calm,Calm,-,N/A,,Haze,0,2013-01-14 16:53:00
9:53 AM,25.0,16.0,69,30.35,10.0,ESE,3.5,-,N/A,,Scattered Clouds,120,2013-01-14 17:53:00
10:53 AM,28.9,18.0,64,30.33,10.0,South,5.8,-,N/A,,Clear,170,2013-01-14 18:53:00
11:53 AM,37.0,21.9,54,30.30,10.0,West,8.1,-,N/A,,Clear,270,2013-01-14 19:53:00
12:21 PM,39.2,26.6,61,30.22,10.0,WNW,23.0,32.2,N/A,,Clear,300,2013-01-14 20:21:00
12:53 PM,39.9,26.1,58,30.28,10.0,WNW,27.6,34.5,N/A,,Clear,300,2013-01-14 20:53:00
2:53 PM,39.9,26.1,58,30.31,10.0,NW,29.9,40.3,N/A,,Clear,320,2013-01-14 22:53:00
3:53 PM,39.0,26.1,60,30.34,10.0,NW,24.2,32.2,N/A,,Clear,310,2013-01-14 23:53:00
4:53 PM,37.9,26.1,62,30.35,10.0,NW,25.3,34.5,N/A,,Clear,320,2013-01-15 00:53:00
5:53 PM,37.9,26.1,62,30.38,10.0,NW,21.9,-,N/A,,Clear,310,2013-01-15 01:53:00
6:53 PM,35.1,23.0,61,30.40,10.0,Variable,3.5,-,N/A,,Clear,0,2013-01-15 02:53:00
7:53 PM,30.0,21.0,69,30.41,10.0,SE,5.8,-,N/A,,Clear,140,2013-01-15 03:53:00
8:53 PM,32.0,19.9,61,30.43,10.0,SSE,5.8,-,N/A,,Clear,150,2013-01-15 04:53:00
9:53 PM,28.0,19.0,69,30.44,10.0,ESE,4.6,-,N/A,,Clear,110,2013-01-15 05:53:00
10:53 PM,28.9,19.0,67,30.45,10.0,SSE,4.6,-,N/A,,Clear,150,2013-01-15 06:53:00
11:53 PM,27.0,18.0,69,30.45,10.0,Calm,Calm,-,N/A,,Clear,0,2013-01-15 07:53:00